Time;durP1;ratioP1;P1;durP2;ratioP2;P2;SDS_P1;SDS_P2;PMS_P1;PMS_P2;Temp;Humidity;BMP_temperature;BMP_pressure;BME280_temperature;BME280_humidity;BME280_pressure;Samples;Min_cycle;Max_cycle;Signal;HPM_P1;HPM_P2
2023/09/07 00:01:09;;;;;;;8.60;4.38;;;21.10;58.80;;;;;;5046199;28;20032;-53
2023/09/07 00:03:41;;;;;;;6.15;4.10;;;21.00;58.60;;;;;;5039315;28;20067;-54
2023/09/07 00:06:11;;;;;;;4.43;4.03;;;21.00;58.70;;;;;;5044884;28;20037;-56
2023/09/07 00:08:40;;;;;;;6.80;4.18;;;20.90;59.20;;;;;;5045461;28;20494;-55
2023/09/07 00:11:15;;;;;;;6.32;3.78;;;20.90;58.90;;;;;;5024712;28;20043;-55
2023/09/07 00:13:45;;;;;;;5.45;4.18;;;20.90;58.80;;;;;;5040633;28;20087;-54
2023/09/07 00:16:12;;;;;;;4.28;3.90;;;20.90;58.90;;;;;;5045709;28;20136;-55
2023/09/07 00:18:39;;;;;;;6.40;5.22;;;20.80;58.90;;;;;;5048162;28;20075;-53
2023/09/07 00:21:09;;;;;;;7.50;4.30;;;20.80;58.80;;;;;;5042814;28;20048;-54
2023/09/07 00:23:36;;;;;;;5.97;4.60;;;20.80;59.00;;;;;;5042275;28;20049;-55
2023/09/07 00:26:03;;;;;;;4.63;4.10;;;20.80;59.10;;;;;;5037854;28;20046;-56
2023/09/07 00:28:32;;;;;;;6.22;4.00;;;20.70;59.00;;;;;;5042719;28;20045;-54
2023/09/07 00:31:02;;;;;;;;;;;20.70;59.10;;;;;;5042854;28;20034;-55
2023/09/07 00:33:28;;;;;;;4.50;4.10;;;20.70;58.40;;;;;;5042946;28;19991;-56
2023/09/07 00:35:55;;;;;;;4.88;4.15;;;20.70;58.50;;;;;;5029646;28;20057;-54
2023/09/07 00:38:24;;;;;;;5.45;4.15;;;20.60;58.80;;;;;;5024839;28;20518;-55
2023/09/07 00:40:51;;;;;;;4.88;4.38;;;20.60;59.00;;;;;;5016613;28;20053;-55
2023/09/07 00:43:20;;;;;;;4.75;4.35;;;20.60;59.00;;;;;;5045766;28;20100;-54
2023/09/07 00:45:54;;;;;;;4.63;3.75;;;20.50;59.00;;;;;;5030636;28;20048;-55
2023/09/07 00:48:21;;;;;;;5.40;3.83;;;20.50;59.60;;;;;;5046342;28;20547;-56
2023/09/07 00:50:48;;;;;;;4.78;4.30;;;20.40;59.10;;;;;;5042750;28;20037;-55
2023/09/07 00:53:17;;;;;;;4.82;4.00;;;20.40;59.20;;;;;;5035014;28;20041;-54
2023/09/07 00:55:44;;;;;;;5.47;3.75;;;20.40;59.40;;;;;;5051833;28;20041;-55
2023/09/07 00:58:14;;;;;;;5.28;3.88;;;20.40;59.50;;;;;;5050514;28;20511;-54
2023/09/07 01:00:42;;;;;;;4.50;3.97;;;20.40;59.50;;;;;;5027865;28;20057;-55
2023/09/07 01:03:14;;;;;;;5.55;4.18;;;20.30;59.40;;;;;;5030191;28;20180;-56
2023/09/07 01:05:58;;;;;;;5.28;4.78;;;20.30;59.50;;;;;;5032894;28;20107;-53
2023/09/07 01:08:35;;;;;;;4.55;4.15;;;20.30;60.00;;;;;;5034471;28;20076;-55
2023/09/07 01:11:12;;;;;;;4.75;4.30;;;20.30;59.60;;;;;;5033709;28;20072;-56
2023/09/07 01:13:42;;;;;;;5.13;4.00;;;20.20;59.60;;;;;;5031859;28;20045;-53
2023/09/07 01:16:13;;;;;;;7.40;4.32;;;20.20;59.60;;;;;;5032073;28;20052;-56
2023/09/07 01:18:41;;;;;;;5.32;4.40;;;20.20;59.80;;;;;;5036084;28;20041;-55
2023/09/07 01:21:11;;;;;;;6.05;4.20;;;20.20;59.70;;;;;;5029818;28;20050;-55
2023/09/07 01:23:49;;;;;;;4.23;3.83;;;20.10;59.80;;;;;;5034544;28;20041;-55
2023/09/07 01:26:24;;;;;;;4.63;3.90;;;20.10;60.20;;;;;;5051105;28;20045;-54
2023/09/07 01:28:52;;;;;;;4.88;3.95;;;20.10;60.00;;;;;;5027451;28;20042;-55
2023/09/07 01:31:22;;;;;;;4.75;3.90;;;20.00;59.70;;;;;;5034383;28;20392;-53
2023/09/07 01:33:48;;;;;;;6.03;4.30;;;20.00;59.80;;;;;;5040607;28;20045;-56
2023/09/07 01:36:16;;;;;;;5.20;4.05;;;20.00;59.80;;;;;;5031490;28;20099;-56
2023/09/07 01:38:43;;;;;;;6.65;3.92;;;19.90;59.90;;;;;;5035592;28;20073;-54
2023/09/07 01:41:10;;;;;;;4.28;3.90;;;19.90;60.00;;;;;;5047772;28;20426;-54
2023/09/07 01:43:41;;;;;;;6.43;4.75;;;19.90;60.00;;;;;;5033233;28;20123;-53
2023/09/07 01:46:09;;;;;;;5.20;3.95;;;19.90;60.10;;;;;;5037051;28;20045;-55
2023/09/07 01:48:36;;;;;;;4.30;3.90;;;19.80;60.00;;;;;;5034683;28;20041;-56
2023/09/07 01:51:03;;;;;;;4.43;3.40;;;19.80;60.00;;;;;;5050167;28;20045;-55
2023/09/07 01:53:32;;;;;;;5.95;4.13;;;19.80;60.00;;;;;;5045397;28;20045;-55
2023/09/07 01:55:59;;;;;;;6.47;3.85;;;19.80;60.00;;;;;;5035277;28;20041;-53
2023/09/07 01:58:26;;;;;;;4.53;4.13;;;19.70;60.00;;;;;;5046385;28;20097;-55
2023/09/07 02:00:59;;;;;;;5.20;4.07;;;19.70;60.10;;;;;;5050457;28;20041;-51
2023/09/07 02:03:27;;;;;;;5.03;3.92;;;19.70;60.60;;;;;;5042944;28;20033;-55
2023/09/07 02:06:00;;;;;;;4.57;3.95;;;19.70;60.30;;;;;;5048012;28;20048;-56
2023/09/07 02:08:27;;;;;;;6.75;4.78;;;19.60;60.30;;;;;;5032526;28;20041;-56
2023/09/07 02:10:56;;;;;;;5.65;3.92;;;19.60;61.00;;;;;;5029413;28;20574;-54
2023/09/07 02:13:25;;;;;;;4.43;4.05;;;19.60;60.30;;;;;;5030852;28;20045;-53
2023/09/07 02:15:54;;;;;;;5.85;4.15;;;19.60;60.60;;;;;;5034179;28;20103;-52
2023/09/07 02:18:25;;;;;;;5.55;4.00;;;19.50;60.40;;;;;;5037630;28;20044;-54
2023/09/07 02:21:04;;;;;;;4.38;3.97;;;19.50;60.30;;;;;;5026927;28;20515;-54
2023/09/07 02:23:33;;;;;;;4.57;4.18;;;19.50;60.90;;;;;;5026713;28;20119;-56
2023/09/07 02:26:04;;;;;;;4.97;4.30;;;19.50;60.30;;;;;;5031253;28;20156;-56
2023/09/07 02:28:34;;;;;;;5.85;4.50;;;19.40;60.70;;;;;;5028836;28;20048;-54
2023/09/07 02:31:05;;;;;;;4.70;4.30;;;19.40;60.50;;;;;;5042709;28;20036;-56
2023/09/07 02:33:33;;;;;;;5.68;4.43;;;19.40;60.70;;;;;;5040462;28;20648;-56
2023/09/07 02:36:03;;;;;;;3.80;3.50;;;19.40;60.30;;;;;;5045885;28;20044;-56
2023/09/07 02:38:30;;;;;;;7.07;4.57;;;19.30;60.30;;;;;;5044753;28;20230;-56
2023/09/07 02:41:03;;;;;;;4.05;3.67;;;19.30;60.50;;;;;;5031699;28;20099;-55
2023/09/07 02:43:30;;;;;;;4.85;4.35;;;19.30;60.60;;;;;;5050083;28;20124;-55
2023/09/07 02:45:58;;;;;;;5.35;4.68;;;19.30;60.60;;;;;;5034335;28;20083;-54
2023/09/07 02:48:26;;;;;;;5.20;4.15;;;19.20;60.50;;;;;;5043389;28;20438;-56
2023/09/07 02:51:00;;;;;;;4.68;4.20;;;19.20;60.70;;;;;;5030641;28;20041;-56
2023/09/07 02:53:27;;;;;;;4.10;3.70;;;19.20;60.90;;;;;;5033781;28;20033;-56
2023/09/07 02:55:56;;;;;;;4.80;4.22;;;19.20;60.90;;;;;;5030276;28;20123;-56
2023/09/07 02:58:27;;;;;;;4.28;3.80;;;19.10;60.90;;;;;;5024520;28;20091;-56
2023/09/07 03:00:55;;;;;;;4.60;4.10;;;19.10;60.80;;;;;;5048729;28;20047;-56
2023/09/07 03:03:26;;;;;;;5.45;4.43;;;19.10;60.90;;;;;;5026994;28;20120;-56
2023/09/07 03:06:08;;;;;;;5.38;4.07;;;19.10;61.10;;;;;;5033185;28;20075;-55
2023/09/07 03:08:34;;;;;;;6.10;3.97;;;19.10;61.00;;;;;;5049354;28;20040;-56
2023/09/07 03:11:04;;;;;;;4.60;4.20;;;19.00;60.90;;;;;;5043867;28;20047;-56
2023/09/07 03:13:32;;;;;;;4.15;3.75;;;19.00;61.00;;;;;;5030883;28;20049;-52
2023/09/07 03:16:00;;;;;;;4.03;3.63;;;19.00;61.10;;;;;;5028746;28;20569;-56
2023/09/07 03:18:31;;;;;;;4.47;3.67;;;19.00;61.20;;;;;;5047964;28;20076;-55
2023/09/07 03:21:07;;;;;;;4.35;3.85;;;19.00;61.10;;;;;;5047943;28;20048;-55
2023/09/07 03:23:35;;;;;;;4.47;4.07;;;18.90;61.10;;;;;;5033322;28;20055;-54
2023/09/07 03:26:03;;;;;;;5.32;3.50;;;18.90;61.00;;;;;;5030796;28;20089;-55
2023/09/07 03:28:32;;;;;;;4.70;3.70;;;18.90;61.10;;;;;;5030666;28;20080;-56
2023/09/07 03:31:05;;;;;;;4.10;3.70;;;18.90;61.10;;;;;;5011918;28;20092;-53
2023/09/07 03:33:31;;;;;;;3.35;3.03;;;18.80;61.10;;;;;;5024888;28;20052;-55
2023/09/07 03:36:01;;;;;;;4.75;3.60;;;18.80;61.20;;;;;;5173405;23;20459;-51
2023/09/07 03:38:29;;;;;;;3.80;3.50;;;18.80;61.10;;;;;;5038267;28;20053;-51
2023/09/07 03:40:57;;;;;;;6.40;3.80;;;18.70;61.10;;;;;;5066025;28;20043;-53
2023/09/07 03:43:28;;;;;;;4.95;3.22;;;18.70;61.20;;;;;;5041845;28;20045;-51
2023/09/07 03:45:59;;;;;;;3.50;3.20;;;18.70;61.20;;;;;;5040466;28;20126;-50
2023/09/07 03:48:26;;;;;;;3.95;3.55;;;18.60;61.20;;;;;;5042301;28;20529;-51
2023/09/07 03:50:58;;;;;;;3.58;3.28;;;18.60;61.20;;;;;;5068211;28;20518;-52
2023/09/07 03:53:25;;;;;;;3.60;3.30;;;18.60;61.20;;;;;;5043366;28;20402;-50
2023/09/07 03:55:52;;;;;;;4.13;3.72;;;18.60;61.30;;;;;;5066744;28;20103;-51
2023/09/07 03:58:20;;;;;;;7.00;4.00;;;18.60;61.40;;;;;;5038531;28;20037;-52
2023/09/07 04:00:48;;;;;;;4.60;3.90;;;18.50;61.30;;;;;;5042254;28;20136;-53
2023/09/07 04:03:17;;;;;;;5.28;4.30;;;18.50;61.50;;;;;;5044992;28;20065;-54
2023/09/07 04:05:44;;;;;;;4.25;3.85;;;18.50;62.00;;;;;;5050577;28;20052;-53
2023/09/07 04:08:14;;;;;;;4.00;3.70;;;18.50;61.60;;;;;;5046060;28;20048;-54
2023/09/07 04:10:43;;;;;;;4.85;3.70;;;18.50;61.60;;;;;;5048678;28;20398;-52
2023/09/07 04:13:14;;;;;;;4.43;4.05;;;18.40;61.50;;;;;;5068946;28;20047;-54
2023/09/07 04:15:43;;;;;;;4.68;4.07;;;18.40;61.60;;;;;;5037013;28;20110;-54
2023/09/07 04:18:16;;;;;;;4.32;3.92;;;18.40;61.60;;;;;;5048212;28;20139;-51
2023/09/07 04:20:43;;;;;;;4.78;3.38;;;18.40;61.60;;;;;;5042305;28;20682;-52
2023/09/07 04:23:14;;;;;;;4.00;3.60;;;18.40;61.60;;;;;;5054920;28;20041;-52
2023/09/07 04:25:41;;;;;;;4.60;4.20;;;18.30;61.40;;;;;;5052798;28;20376;-51
2023/09/07 04:28:08;;;;;;;3.92;3.60;;;18.30;61.60;;;;;;5039770;28;20045;-53
2023/09/07 04:30:40;;;;;;;3.95;3.58;;;18.30;61.60;;;;;;5071828;28;20498;-51
2023/09/07 04:33:06;;;;;;;4.57;4.07;;;18.20;61.60;;;;;;5052764;28;20461;-53
2023/09/07 04:35:36;;;;;;;4.25;3.67;;;18.20;61.40;;;;;;5069364;28;20044;-54
2023/09/07 04:38:03;;;;;;;4.47;3.10;;;18.20;61.60;;;;;;5053012;28;20111;-54
2023/09/07 04:40:31;;;;;;;4.20;3.53;;;18.20;62.20;;;;;;5045472;28;20048;-52
2023/09/07 04:43:00;;;;;;;4.78;3.92;;;18.20;61.80;;;;;;5069034;28;20556;-55
2023/09/07 04:45:29;;;;;;;4.05;3.75;;;18.10;61.80;;;;;;5070625;28;20045;-54
2023/09/07 04:47:56;;;;;;;4.40;3.63;;;18.10;61.90;;;;;;5051875;28;20041;-54
2023/09/07 04:50:23;;;;;;;4.30;3.88;;;18.10;61.90;;;;;;5069654;28;20053;-51
2023/09/07 04:52:52;;;;;;;4.28;3.85;;;18.10;61.90;;;;;;5073006;28;20154;-54
2023/09/07 04:55:21;;;;;;;4.13;3.65;;;18.10;62.00;;;;;;5046612;28;20059;-51
2023/09/07 04:57:48;;;;;;;4.15;3.75;;;18.00;62.00;;;;;;5047502;28;20439;-55
2023/09/07 05:00:19;;;;;;;4.43;3.78;;;18.00;62.00;;;;;;5065204;28;20032;-52
2023/09/07 05:02:47;;;;;;;4.70;3.83;;;18.00;62.00;;;;;;5043896;28;20044;-54
2023/09/07 05:05:13;;;;;;;4.95;4.45;;;18.00;62.00;;;;;;5043137;28;20044;-52
2023/09/07 05:07:41;;;;;;;5.57;3.88;;;18.00;62.10;;;;;;5049517;28;20072;-53
2023/09/07 05:10:12;;;;;;;4.35;3.92;;;18.00;62.10;;;;;;5046945;28;20044;-54
2023/09/07 05:12:41;;;;;;;5.00;4.50;;;17.90;62.20;;;;;;5041865;28;20033;-52
2023/09/07 05:15:12;;;;;;;4.70;3.95;;;17.90;62.50;;;;;;5048754;28;20123;-54
2023/09/07 05:17:38;;;;;;;5.88;3.58;;;17.90;62.40;;;;;;5067511;28;20687;-54
2023/09/07 05:20:09;;;;;;;4.30;3.90;;;17.90;62.30;;;;;;5050033;28;20422;-51
2023/09/07 05:22:39;;;;;;;4.75;4.10;;;17.90;62.50;;;;;;5048978;28;20044;-53
2023/09/07 05:25:06;;;;;;;5.50;3.65;;;17.90;62.50;;;;;;5070687;28;20063;-52
2023/09/07 05:27:34;;;;;;;4.40;3.63;;;17.90;62.40;;;;;;5063607;28;20047;-54
2023/09/07 05:30:05;;;;;;;5.78;4.30;;;17.90;62.70;;;;;;5052430;28;20093;-53
2023/09/07 05:32:34;;;;;;;6.30;4.18;;;17.90;62.80;;;;;;5042372;28;20145;-54
2023/09/07 05:35:01;;;;;;;5.38;4.00;;;17.90;62.80;;;;;;5047188;28;20044;-55
2023/09/07 05:37:28;;;;;;;4.70;3.70;;;17.90;63.10;;;;;;5048613;28;20071;-53
2023/09/07 05:39:54;;;;;;;4.47;4.07;;;17.90;63.00;;;;;;5066317;28;20036;-52
2023/09/07 05:42:21;;;;;;;4.13;3.75;;;17.90;63.10;;;;;;5069399;28;20032;-55
2023/09/07 05:44:48;;;;;;;4.25;3.80;;;17.90;63.20;;;;;;5045212;28;20094;-55
2023/09/07 05:47:15;;;;;;;5.50;4.03;;;17.90;63.20;;;;;;5070233;28;20044;-52
2023/09/07 05:49:42;;;;;;;5.00;3.90;;;17.90;63.20;;;;;;5049172;28;20123;-55
2023/09/07 05:52:08;;;;;;;6.40;4.45;;;17.90;63.40;;;;;;5067434;28;20036;-54
2023/09/07 05:54:35;;;;;;;3.80;3.42;;;17.90;63.50;;;;;;5046313;28;20068;-54
2023/09/07 05:57:02;;;;;;;4.78;4.30;;;18.00;63.50;;;;;;5049269;28;20044;-53
2023/09/07 05:59:29;;;;;;;4.50;4.10;;;18.00;63.60;;;;;;5048482;28;20067;-54
2023/09/07 06:01:56;;;;;;;4.30;3.90;;;18.00;63.70;;;;;;5044989;28;20045;-55
2023/09/07 06:04:23;;;;;;;4.55;3.58;;;18.00;63.80;;;;;;5030624;28;20099;-55
2023/09/07 06:06:50;;;;;;;3.67;3.38;;;18.00;63.90;;;;;;5043897;28;20048;-55
2023/09/07 06:09:17;;;;;;;5.22;4.72;;;18.10;64.00;;;;;;5039274;28;20044;-54
2023/09/07 06:11:44;;;;;;;4.30;3.88;;;18.10;64.10;;;;;;5041667;28;20060;-54
2023/09/07 06:14:11;;;;;;;4.05;3.58;;;18.10;64.30;;;;;;5049431;28;20071;-54
2023/09/07 06:16:39;;;;;;;6.07;4.10;;;18.20;64.50;;;;;;5047917;28;20054;-55
2023/09/07 06:19:07;;;;;;;6.85;4.00;;;18.20;64.60;;;;;;5047135;28;20052;-54
2023/09/07 06:21:35;;;;;;;6.95;4.82;;;18.20;64.70;;;;;;5047280;28;20182;-55
2023/09/07 06:24:02;;;;;;;4.68;3.78;;;18.20;64.80;;;;;;5070409;28;20040;-54
2023/09/07 06:26:29;;;;;;;7.07;4.60;;;18.30;65.00;;;;;;5045382;28;20052;-51
2023/09/07 06:28:55;;;;;;;5.03;4.40;;;18.40;65.10;;;;;;5067334;28;20041;-51
2023/09/07 06:31:22;;;;;;;4.63;4.10;;;18.40;65.20;;;;;;5049330;28;20043;-55
2023/09/07 06:33:49;;;;;;;9.32;4.88;;;18.40;65.40;;;;;;5040150;28;20040;-52
2023/09/07 06:36:16;;;;;;;5.82;4.82;;;18.40;65.60;;;;;;5047501;28;20495;-51
2023/09/07 06:38:49;;;;;;;5.43;4.32;;;18.50;65.90;;;;;;5067383;28;20059;-55
2023/09/07 06:41:16;;;;;;;7.53;4.97;;;18.50;66.10;;;;;;5038960;28;20449;-52
2023/09/07 06:43:43;;;;;;;5.45;4.30;;;18.60;66.30;;;;;;5048147;28;20068;-55
2023/09/07 06:46:10;;;;;;;7.28;4.32;;;18.60;66.40;;;;;;5069997;28;20036;-51
2023/09/07 06:48:36;;;;;;;5.90;4.13;;;18.70;66.50;;;;;;5047121;28;20052;-51
2023/09/07 06:51:05;;;;;;;6.15;4.18;;;18.70;66.80;;;;;;5052043;28;20517;-51
2023/09/07 06:53:34;;;;;;;5.78;4.18;;;18.80;66.90;;;;;;5059517;28;20055;-52
2023/09/07 06:56:20;;;;;;;4.97;4.40;;;18.90;67.10;;;;;;5050067;28;20036;-53
2023/09/07 06:58:48;;;;;;;5.78;4.60;;;18.90;67.00;;;;;;5047241;28;20051;-52
2023/09/07 07:01:15;;;;;;;5.03;4.35;;;19.00;67.20;;;;;;5065912;28;20048;-52
2023/09/07 07:03:44;;;;;;;5.35;4.85;;;19.00;67.20;;;;;;5063309;28;20535;-54
2023/09/07 07:06:12;;;;;;;5.43;4.93;;;19.10;67.40;;;;;;5067341;28;20098;-51
2023/09/07 07:08:39;;;;;;;5.70;4.50;;;19.20;67.50;;;;;;5047421;28;20502;-52
2023/09/07 07:11:05;;;;;;;6.13;4.50;;;19.20;67.60;;;;;;5046080;28;20039;-52
2023/09/07 07:13:33;;;;;;;4.18;3.78;;;19.30;67.90;;;;;;5048842;28;20051;-52
2023/09/07 07:16:00;;;;;;;5.30;4.25;;;19.30;68.10;;;;;;5047699;28;20040;-52
2023/09/07 07:18:45;;;;;;;5.55;5.00;;;19.40;68.20;;;;;;5068055;28;20114;-53
2023/09/07 07:21:29;;;;;;;5.30;4.10;;;19.50;68.40;;;;;;5044260;28;20020;-51
2023/09/07 07:23:56;;;;;;;5.68;4.55;;;19.60;68.40;;;;;;5069680;28;20445;-54
2023/09/07 07:26:23;;;;;;;6.43;4.72;;;19.70;68.60;;;;;;5067269;28;20403;-54
2023/09/07 07:28:50;;;;;;;6.68;4.53;;;19.70;68.40;;;;;;5045467;28;20044;-51
2023/09/07 07:31:34;;;;;;;5.20;4.70;;;19.80;68.90;;;;;;5047364;28;20413;-55
2023/09/07 07:34:01;;;;;;;6.45;5.00;;;19.90;68.70;;;;;;5038354;28;20064;-54
2023/09/07 07:36:29;;;;;;;5.20;4.63;;;20.00;68.50;;;;;;5048473;28;20083;-52
2023/09/07 07:39:00;;;;;;;5.07;4.57;;;20.20;68.50;;;;;;5052464;28;20036;-55
2023/09/07 07:41:27;;;;;;;4.80;4.25;;;20.20;68.40;;;;;;5049782;28;20127;-52
2023/09/07 07:43:53;;;;;;;5.22;4.75;;;20.30;68.40;;;;;;5049405;28;20044;-55
2023/09/07 07:46:21;;;;;;;8.10;5.13;;;20.40;68.20;;;;;;5065116;28;20494;-52
2023/09/07 07:48:48;;;;;;;5.20;4.50;;;20.50;68.00;;;;;;5060939;28;20039;-55
2023/09/07 07:51:15;;;;;;;4.20;3.90;;;20.60;68.00;;;;;;5042703;28;20044;-55
2023/09/07 07:53:43;;;;;;;4.47;4.07;;;20.70;67.80;;;;;;5041288;28;20094;-53
2023/09/07 07:56:16;;;;;;;13.65;4.85;;;20.80;67.90;;;;;;5038858;28;20051;-52
2023/09/07 07:58:44;;;;;;;4.40;4.00;;;20.90;67.70;;;;;;5045308;28;20045;-51
2023/09/07 08:01:14;;;;;;;4.97;4.47;;;21.00;67.40;;;;;;5042509;28;20037;-55
2023/09/07 08:03:43;;;;;;;5.47;4.03;;;21.10;67.80;;;;;;5045679;28;20060;-55
2023/09/07 08:06:11;;;;;;;7.03;4.53;;;21.20;67.10;;;;;;5047152;28;20114;-51
2023/09/07 08:08:39;;;;;;;4.78;4.35;;;21.20;66.90;;;;;;5047000;28;20076;-51
2023/09/07 08:11:07;;;;;;;6.28;4.60;;;21.30;66.40;;;;;;5047396;28;20037;-51
2023/09/07 08:13:36;;;;;;;6.28;3.92;;;21.50;66.50;;;;;;5043041;28;20083;-52
2023/09/07 08:16:04;;;;;;;6.45;4.20;;;21.50;66.20;;;;;;5044556;28;20090;-51
2023/09/07 08:18:35;;;;;;;6.85;4.15;;;21.70;66.30;;;;;;5067158;28;20041;-53
2023/09/07 08:21:03;;;;;;;6.55;4.90;;;21.80;65.50;;;;;;5047721;28;20052;-55
2023/09/07 08:23:29;;;;;;;5.88;3.88;;;21.80;64.80;;;;;;5069607;28;20044;-55
2023/09/07 08:25:57;;;;;;;8.90;4.65;;;22.00;64.70;;;;;;5047164;28;20078;-54
2023/09/07 08:28:25;;;;;;;4.75;4.35;;;22.00;64.30;;;;;;5048483;28;20041;-55
2023/09/07 08:30:58;;;;;;;3.97;3.58;;;22.10;64.50;;;;;;5063629;28;20098;-55
2023/09/07 08:33:28;;;;;;;4.03;3.50;;;22.30;64.40;;;;;;5057298;28;20056;-55
2023/09/07 08:35:56;;;;;;;8.02;4.53;;;22.40;63.70;;;;;;5066303;28;20128;-55
2023/09/07 08:38:27;;;;;;;4.90;3.60;;;22.40;63.30;;;;;;5067660;28;20113;-54
2023/09/07 08:41:00;;;;;;;5.43;4.93;;;22.50;63.20;;;;;;5066915;28;20135;-55
2023/09/07 08:43:29;;;;;;;5.95;3.83;;;22.60;62.90;;;;;;5064681;28;20399;-53
2023/09/07 08:46:04;;;;;;;7.63;4.63;;;22.70;62.80;;;;;;5066752;28;20564;-55
2023/09/07 08:48:32;;;;;;;4.88;4.15;;;22.80;62.00;;;;;;5062774;28;20162;-55
2023/09/07 08:51:00;;;;;;;5.50;4.18;;;22.90;62.00;;;;;;5061777;28;20043;-55
2023/09/07 08:53:30;;;;;;;3.97;3.60;;;22.90;61.80;;;;;;5063130;28;20100;-55
2023/09/07 08:56:02;;;;;;;5.82;3.95;;;23.00;61.80;;;;;;5067755;28;20127;-51
2023/09/07 08:58:31;;;;;;;4.82;4.43;;;23.10;61.70;;;;;;5061948;28;20052;-52
2023/09/07 09:00:58;;;;;;;4.03;3.72;;;23.10;61.20;;;;;;5061572;28;20036;-52
2023/09/07 09:03:34;;;;;;;8.57;4.30;;;23.20;61.00;;;;;;5060884;28;20060;-53
2023/09/07 09:06:02;;;;;;;4.97;3.97;;;23.30;61.20;;;;;;5046961;28;20041;-51
2023/09/07 09:08:30;;;;;;;5.43;3.63;;;23.40;60.80;;;;;;5069985;28;20569;-55
2023/09/07 09:11:03;;;;;;;4.30;3.88;;;23.40;60.30;;;;;;5071049;28;20047;-52
2023/09/07 09:13:31;;;;;;;4.65;4.20;;;23.50;61.10;;;;;;5066567;28;20552;-52
2023/09/07 09:16:01;;;;;;;7.53;3.88;;;23.50;61.00;;;;;;5071023;28;20059;-51
2023/09/07 09:18:28;;;;;;;3.75;3.35;;;23.70;60.70;;;;;;5071201;28;20120;-55
2023/09/07 09:20:58;;;;;;;5.40;4.18;;;23.70;60.40;;;;;;5065247;28;20064;-53
2023/09/07 09:23:38;;;;;;;5.78;4.85;;;23.70;60.00;;;;;;5072107;28;20068;-53
2023/09/07 09:26:05;;;;;;;4.35;4.03;;;23.80;60.30;;;;;;5070935;28;20044;-52
2023/09/07 09:28:33;;;;;;;4.65;3.70;;;23.90;60.10;;;;;;5071672;28;20123;-52
2023/09/07 09:31:02;;;;;;;4.57;4.18;;;23.90;59.60;;;;;;5064753;28;20092;-51
2023/09/07 09:33:33;;;;;;;4.22;3.83;;;24.00;60.00;;;;;;5062621;28;20041;-52
2023/09/07 09:36:00;;;;;;;7.25;4.70;;;24.00;59.40;;;;;;5066595;28;20123;-51
2023/09/07 09:38:27;;;;;;;4.90;3.55;;;24.10;59.30;;;;;;5071942;28;20060;-52
2023/09/07 09:40:55;;;;;;;4.45;4.15;;;24.20;58.80;;;;;;5069178;28;20124;-54
2023/09/07 09:43:22;;;;;;;4.40;3.97;;;24.20;58.60;;;;;;5064604;28;20499;-50
2023/09/07 09:45:50;;;;;;;5.18;4.18;;;24.30;58.80;;;;;;5086740;23;20594;-52
2023/09/07 09:48:19;;;;;;;5.47;4.53;;;24.30;58.50;;;;;;5077967;28;20044;-54
2023/09/07 09:50:48;;;;;;;5.22;4.13;;;24.40;58.80;;;;;;5087670;28;20051;-53
2023/09/07 09:53:21;;;;;;;6.10;4.78;;;24.40;58.80;;;;;;5091803;28;20060;-53
2023/09/07 09:55:48;;;;;;;4.25;3.85;;;24.50;58.50;;;;;;5083251;28;20047;-54
2023/09/07 09:58:16;;;;;;;5.47;3.83;;;24.50;58.80;;;;;;5089853;28;20060;-54
2023/09/07 10:00:48;;;;;;;5.70;4.18;;;24.60;58.80;;;;;;5090772;28;20518;-52
2023/09/07 10:03:31;;;;;;;5.43;4.00;;;24.70;58.60;;;;;;5084353;28;20032;-56
2023/09/07 10:06:11;;;;;;;4.93;4.18;;;24.70;58.50;;;;;;5081073;28;20052;-55
2023/09/07 10:08:37;;;;;;;6.40;4.70;;;24.80;57.90;;;;;;5090651;28;20595;-55
2023/09/07 10:11:11;;;;;;;6.35;4.55;;;24.90;58.50;;;;;;5090367;28;20055;-56
2023/09/07 10:13:38;;;;;;;4.70;3.65;;;24.90;57.80;;;;;;5091766;28;20070;-55
2023/09/07 10:16:09;;;;;;;7.47;4.88;;;25.00;57.70;;;;;;5084203;28;20052;-56
2023/09/07 10:18:38;;;;;;;8.70;4.68;;;25.10;57.50;;;;;;5084816;28;20425;-55
2023/09/07 10:21:06;;;;;;;4.47;4.07;;;25.10;57.10;;;;;;5072307;28;20051;-56
2023/09/07 10:23:40;;;;;;;5.47;4.15;;;25.20;57.50;;;;;;5091430;28;20123;-56
2023/09/07 10:26:15;;;;;;;8.25;3.83;;;25.30;57.10;;;;;;5069656;28;20128;-56
2023/09/07 10:28:45;;;;;;;5.55;3.60;;;25.30;56.60;;;;;;5089931;28;20465;-56
2023/09/07 10:31:19;;;;;;;9.02;4.03;;;25.40;56.80;;;;;;5089830;28;20506;-55
2023/09/07 10:33:46;;;;;;;4.97;3.72;;;25.50;56.60;;;;;;5086993;28;20067;-56
2023/09/07 10:36:27;;;;;;;4.72;3.55;;;25.50;56.40;;;;;;5090203;28;20502;-56
2023/09/07 10:38:56;;;;;;;4.38;4.03;;;25.60;56.60;;;;;;5089639;28;20046;-56
2023/09/07 10:41:23;;;;;;;5.00;3.67;;;25.60;56.50;;;;;;5073947;28;20083;-57
2023/09/07 10:43:53;;;;;;;4.47;3.97;;;25.70;56.50;;;;;;5085071;28;20105;-56
2023/09/07 10:46:21;;;;;;;5.40;3.88;;;25.80;56.40;;;;;;5079735;28;20129;-56
2023/09/07 10:48:50;;;;;;;4.75;3.85;;;25.80;56.60;;;;;;5083067;28;20585;-56
2023/09/07 10:51:18;;;;;;;5.00;3.60;;;25.90;56.20;;;;;;5084085;28;20077;-56
2023/09/07 10:53:47;;;;;;;5.18;3.65;;;26.00;56.10;;;;;;5091077;28;20055;-56
2023/09/07 10:56:14;;;;;;;3.72;3.38;;;26.10;55.90;;;;;;5089877;28;20505;-54
2023/09/07 10:58:42;;;;;;;4.55;4.15;;;26.20;56.10;;;;;;5085319;28;20534;-56
2023/09/07 11:01:09;;;;;;;6.18;4.20;;;26.30;56.10;;;;;;5088893;28;20052;-56
2023/09/07 11:03:37;;;;;;;5.15;3.08;;;26.30;56.30;;;;;;5081301;28;20469;-56
2023/09/07 11:06:19;;;;;;;4.22;3.83;;;26.40;56.40;;;;;;5082324;28;20048;-56
2023/09/07 11:08:49;;;;;;;6.72;4.25;;;26.50;56.20;;;;;;5071988;28;20113;-56
2023/09/07 11:11:16;;;;;;;5.18;3.67;;;26.60;56.00;;;;;;5084152;28;20060;-55
2023/09/07 11:13:43;;;;;;;4.03;3.63;;;26.60;55.90;;;;;;5070271;28;20038;-56
2023/09/07 11:16:10;;;;;;;6.55;3.65;;;26.70;55.40;;;;;;5089571;28;20040;-55
2023/09/07 11:18:36;;;;;;;4.05;3.50;;;26.80;55.30;;;;;;5089795;28;20036;-55
2023/09/07 11:21:04;;;;;;;3.90;3.60;;;26.90;56.10;;;;;;5084777;28;20101;-54
2023/09/07 11:23:37;;;;;;;5.28;3.92;;;26.90;55.40;;;;;;5090133;28;20075;-56
2023/09/07 11:26:05;;;;;;;4.32;3.75;;;27.00;55.60;;;;;;5089054;28;20525;-56
2023/09/07 11:28:32;;;;;;;5.85;3.97;;;27.10;55.40;;;;;;5088867;28;20047;-56
2023/09/07 11:30:59;;;;;;;4.90;3.63;;;27.20;55.00;;;;;;5085204;28;20110;-55
2023/09/07 11:33:27;;;;;;;3.95;3.35;;;27.20;55.10;;;;;;5080271;28;20044;-57
2023/09/07 11:35:56;;;;;;;4.25;3.75;;;27.30;54.70;;;;;;5089111;28;20097;-55
2023/09/07 11:38:29;;;;;;;4.95;3.53;;;27.40;55.10;;;;;;5089740;28;20067;-56
2023/09/07 11:40:56;;;;;;;4.25;3.60;;;27.50;55.00;;;;;;5068873;28;20491;-56
2023/09/07 11:43:23;;;;;;;5.43;3.65;;;27.60;54.10;;;;;;5087655;28;20089;-56
2023/09/07 11:45:50;;;;;;;5.22;3.60;;;27.60;54.00;;;;;;5088373;28;20113;-56
2023/09/07 11:48:17;;;;;;;7.20;3.95;;;27.70;53.80;;;;;;5088165;28;20048;-56
2023/09/07 11:50:44;;;;;;;3.97;3.63;;;27.80;53.80;;;;;;5080994;28;20085;-55
2023/09/07 11:53:10;;;;;;;3.72;3.42;;;27.90;53.90;;;;;;5088073;28;20051;-56
2023/09/07 11:55:39;;;;;;;6.30;3.88;;;27.90;53.30;;;;;;5088817;28;20048;-56
2023/09/07 11:58:08;;;;;;;5.50;3.50;;;28.00;53.40;;;;;;5088447;28;20039;-56
2023/09/07 12:00:34;;;;;;;4.20;3.90;;;28.10;53.20;;;;;;5084444;28;20103;-56
2023/09/07 12:03:01;;;;;;;5.18;3.50;;;28.20;53.20;;;;;;5080276;28;20470;-55
2023/09/07 12:05:28;;;;;;;6.32;4.00;;;28.30;52.50;;;;;;5088784;28;20820;-52
2023/09/07 12:07:55;;;;;;;6.38;3.33;;;28.30;52.30;;;;;;5089023;28;20055;-57
2023/09/07 12:10:23;;;;;;;4.32;3.15;;;28.40;51.50;;;;;;5078191;28;20083;-54
2023/09/07 12:12:49;;;;;;;3.83;3.53;;;28.50;51.60;;;;;;5071991;28;20413;-56
2023/09/07 12:15:16;;;;;;;3.13;2.88;;;28.50;51.80;;;;;;5088327;28;20564;-54
2023/09/07 12:17:43;;;;;;;4.47;3.70;;;28.60;51.40;;;;;;5089626;28;20040;-56
2023/09/07 12:20:10;;;;;;;5.32;3.85;;;28.70;51.80;;;;;;5082029;28;20045;-55
2023/09/07 12:22:37;;;;;;;5.00;3.13;;;28.70;51.40;;;;;;5071303;28;20059;-56
2023/09/07 12:25:07;;;;;;;3.97;3.50;;;28.80;50.80;;;;;;5089179;28;20577;-56
2023/09/07 12:27:46;;;;;;;3.50;3.20;;;29.00;50.70;;;;;;5086743;28;20043;-57
2023/09/07 12:30:20;;;;;;;6.63;3.67;;;29.00;50.60;;;;;;5084977;28;20525;-52
2023/09/07 12:32:46;;;;;;;4.60;3.95;;;29.10;49.70;;;;;;5084429;28;20049;-56
2023/09/07 12:35:14;;;;;;;8.00;3.38;;;29.20;50.10;;;;;;5087105;28;20067;-53
2023/09/07 12:37:41;;;;;;;4.60;3.40;;;29.30;50.00;;;;;;5089210;28;20039;-56
2023/09/07 12:40:15;;;;;;;5.38;3.53;;;29.30;50.40;;;;;;5089091;28;20044;-54
2023/09/07 12:42:43;;;;;;;6.50;4.68;;;29.40;49.90;;;;;;5093044;28;20444;-53
2023/09/07 12:45:11;;;;;;;3.40;3.20;;;29.50;49.60;;;;;;5091683;28;20036;-55
2023/09/07 12:47:39;;;;;;;4.72;3.55;;;29.60;49.30;;;;;;5090006;28;20134;-55
2023/09/07 12:50:07;;;;;;;4.82;3.65;;;29.60;49.60;;;;;;5088616;28;20036;-57
2023/09/07 12:52:36;;;;;;;3.58;3.13;;;29.70;49.00;;;;;;5091588;28;20566;-56
2023/09/07 12:55:04;;;;;;;6.72;3.58;;;29.80;49.00;;;;;;5083069;28;20502;-56
2023/09/07 12:57:31;;;;;;;3.22;2.92;;;29.90;49.40;;;;;;5091311;28;20044;-56